Time;durP1;ratioP1;P1;durP2;ratioP2;P2;SDS_P1;SDS_P2;PMS_P1;PMS_P2;Temp;Humidity;BMP_temperature;BMP_pressure;BME280_temperature;BME280_humidity;BME280_pressure;Samples;Min_cycle;Max_cycle;Signal;HPM_P1;HPM_P2
2022/06/05 00:02:02;;;;;;;8.50;5.72;;;21.30;69.00;;;;;;5012781;28;20034;-80
2022/06/05 00:04:59;;;;;;;12.73;6.22;;;21.20;69.10;;;;;;5024906;28;20030;-80
2022/06/05 00:07:39;;;;;;;8.88;6.00;;;21.20;69.30;;;;;;5024900;28;20470;-80
2022/06/05 00:10:21;;;;;;;9.75;6.25;;;21.10;69.10;;;;;;5014237;28;20048;-79
2022/06/05 00:12:50;;;;;;;9.82;5.80;;;21.10;68.90;;;;;;5011917;28;20034;-80
2022/06/05 00:15:16;;;;;;;13.23;6.13;;;21.00;68.80;;;;;;5013081;28;20088;-79
2022/06/05 00:17:42;;;;;;;8.65;6.60;;;20.90;68.90;;;;;;5012435;28;20022;-80
2022/06/05 00:20:09;;;;;;;11.57;5.85;;;20.90;69.10;;;;;;5012212;28;20092;-79
2022/06/05 00:22:37;;;;;;;10.52;6.40;;;20.90;68.90;;;;;;5019671;28;20026;-80
2022/06/05 00:25:03;;;;;;;9.85;5.57;;;20.80;68.70;;;;;;5010518;28;20029;-80
2022/06/05 00:27:38;;;;;;;8.05;6.55;;;20.80;68.60;;;;;;5023126;28;20022;-80
2022/06/05 00:30:17;;;;;;;12.75;6.18;;;20.80;68.50;;;;;;5015154;28;20075;-79
2022/06/05 00:32:49;;;;;;;11.02;6.38;;;20.70;68.80;;;;;;5013362;28;20040;-80
2022/06/05 00:35:17;;;;;;;12.90;6.05;;;20.60;69.30;;;;;;5018689;28;20132;-79
2022/06/05 00:37:52;;;;;;;11.75;6.45;;;20.60;69.60;;;;;;5012075;28;20040;-80
2022/06/05 00:40:52;;;;;;;10.60;6.40;;;20.60;69.50;;;;;;5024709;28;20100;-80
2022/06/05 00:43:22;;;;;;;10.75;6.18;;;20.50;69.30;;;;;;5024906;28;20017;-79
2022/06/05 00:45:48;;;;;;;9.20;6.40;;;20.50;69.20;;;;;;5011420;28;20022;-80
2022/06/05 00:48:14;;;;;;;8.07;6.28;;;20.40;69.40;;;;;;5012569;28;20060;-80
2022/06/05 00:50:42;;;;;;;13.35;6.80;;;20.40;69.50;;;;;;5012434;28;20049;-79
2022/06/05 00:53:09;;;;;;;9.80;5.80;;;20.30;69.90;;;;;;5020723;28;20038;-80
2022/06/05 00:55:44;;;;;;;10.52;6.30;;;20.30;70.30;;;;;;5010838;28;20037;-80
2022/06/05 00:58:10;;;;;;;9.30;6.20;;;20.30;70.50;;;;;;5025082;28;20037;-79
2022/06/05 01:00:40;;;;;;;12.55;6.60;;;20.20;70.50;;;;;;5013023;28;20037;-79
2022/06/05 01:03:09;;;;;;;12.20;7.07;;;20.20;70.40;;;;;;5011369;28;20057;-80
2022/06/05 01:05:35;;;;;;;10.43;6.85;;;20.20;70.20;;;;;;5012201;28;20061;-80
2022/06/05 01:08:02;;;;;;;9.43;6.30;;;20.10;70.20;;;;;;5024606;28;20384;-80
2022/06/05 01:10:43;;;;;;;10.00;6.85;;;20.10;70.30;;;;;;5017277;28;20476;-79
2022/06/05 01:13:19;;;;;;;9.68;6.68;;;20.00;70.50;;;;;;5024517;28;20408;-80
2022/06/05 01:16:00;;;;;;;9.15;6.50;;;20.00;70.60;;;;;;5013293;28;20108;-79
2022/06/05 01:18:44;;;;;;;11.35;6.65;;;20.00;70.40;;;;;;5012574;28;20508;-79
2022/06/05 01:21:42;;;;;;;10.32;6.75;;;20.00;70.40;;;;;;5011628;28;20460;-79
2022/06/05 01:24:51;;;;;;;9.57;6.85;;;19.90;70.70;;;;;;5012266;28;20103;-80
2022/06/05 01:27:22;;;;;;;8.35;6.43;;;19.90;71.00;;;;;;5019873;28;20556;-79
2022/06/05 01:29:59;;;;;;;7.65;5.40;;;19.80;71.20;;;;;;5025640;28;20037;-79
2022/06/05 01:32:34;;;;;;;7.82;5.60;;;19.80;71.60;;;;;;5021876;28;20014;-80
2022/06/05 01:35:47;;;;;;;9.15;6.53;;;19.80;71.70;;;;;;5009932;28;20519;-80
2022/06/05 01:38:21;;;;;;;11.57;6.95;;;19.80;71.80;;;;;;5004875;28;20034;-80
2022/06/05 01:40:53;;;;;;;10.63;7.25;;;19.70;72.00;;;;;;5004638;28;20040;-80
2022/06/05 01:43:26;;;;;;;8.30;6.25;;;19.70;72.20;;;;;;5005397;28;20056;-80
2022/06/05 01:46:03;;;;;;;13.75;7.95;;;19.70;72.30;;;;;;5006230;28;20069;-80
2022/06/05 01:48:37;;;;;;;13.18;7.53;;;19.70;71.90;;;;;;5004602;28;20042;-79
2022/06/05 01:51:07;;;;;;;13.02;7.10;;;19.60;71.80;;;;;;4988000;28;20069;-79
2022/06/05 01:53:39;;;;;;;13.13;8.00;;;19.60;71.90;;;;;;5009238;28;20033;-80
2022/06/05 01:56:08;;;;;;;11.48;6.82;;;19.50;72.00;;;;;;5004730;28;20076;-80
2022/06/05 01:58:42;;;;;;;14.93;6.85;;;19.50;72.30;;;;;;4991938;28;20045;-80
2022/06/05 02:01:19;;;;;;;9.45;6.88;;;19.50;72.30;;;;;;5010000;28;20528;-80
2022/06/05 02:04:01;;;;;;;17.20;7.40;;;19.50;72.40;;;;;;5009516;28;20088;-79
2022/06/05 02:06:53;;;;;;;14.25;7.70;;;19.50;72.50;;;;;;4991657;28;20128;-80
2022/06/05 02:09:36;;;;;;;11.43;7.78;;;19.40;72.60;;;;;;5007766;28;20036;-80
2022/06/05 02:12:04;;;;;;;12.88;7.85;;;19.40;72.80;;;;;;5011449;28;20049;-79
2022/06/05 02:14:31;;;;;;;9.98;7.20;;;19.30;72.70;;;;;;5015261;28;20055;-80
2022/06/05 02:16:58;;;;;;;15.02;8.02;;;19.30;72.80;;;;;;5013073;28;20052;-79
2022/06/05 02:19:24;;;;;;;13.25;8.30;;;19.30;73.50;;;;;;5013907;28;20030;-79
2022/06/05 02:21:53;;;;;;;12.30;8.43;;;19.20;72.90;;;;;;5017057;28;20124;-80
2022/06/05 02:24:18;;;;;;;12.82;9.40;;;19.20;73.30;;;;;;5019463;28;20111;-80
2022/06/05 02:26:44;;;;;;;15.13;9.45;;;19.20;73.80;;;;;;5018683;28;20488;-80
2022/06/05 02:29:19;;;;;;;14.77;9.68;;;19.20;74.30;;;;;;5026529;28;20101;-80
2022/06/05 02:31:52;;;;;;;13.82;9.85;;;19.20;74.60;;;;;;5010602;28;20034;-80
2022/06/05 02:34:35;;;;;;;16.02;9.10;;;19.20;74.70;;;;;;5014699;28;20022;-80
2022/06/05 02:37:11;;;;;;;12.98;9.25;;;19.20;74.80;;;;;;5027471;28;20116;-79
2022/06/05 02:39:52;;;;;;;15.60;9.93;;;19.20;74.60;;;;;;5015058;28;20026;-80
